Metar z pełnej godziny Komunikat METAR ze strony awiacja.imgw.pl Metar G00 EPSY METAR EPSY 261800Z 29007KT 240V330 9999 -SN OVC021 01/M03 Q1004=